createdAt,value
2019-03-01T00:00:58.557Z,40.37
2019-03-01T00:11:25.431Z,37.37
2019-03-01T00:21:36.480Z,40.53
2019-03-01T00:31:53.676Z,41.97
2019-03-01T00:42:20.137Z,40.83
2019-03-01T00:52:34.877Z,40.37
2019-03-01T01:02:41.991Z,42.83
2019-03-01T01:12:47.639Z,40.87
2019-03-01T01:22:53.250Z,43.17
2019-03-01T01:32:58.812Z,42.73
2019-03-01T01:43:04.377Z,43.17
2019-03-01T01:53:09.884Z,45.27
2019-03-01T02:03:15.435Z,44.77
2019-03-01T02:13:20.993Z,43.67
2019-03-01T02:23:26.480Z,47.30
2019-03-01T02:33:32.058Z,47.93
2019-03-01T02:43:37.579Z,49.57
2019-03-01T02:53:43.141Z,48.07
2019-03-01T03:03:48.655Z,55.23
2019-03-01T03:13:54.164Z,53.87
2019-03-01T03:23:59.719Z,54.97
2019-03-01T03:34:05.325Z,55.13
2019-03-01T03:44:11.017Z,57.67
2019-03-01T03:54:16.528Z,56.37
2019-03-01T04:04:22.039Z,56.97
2019-03-01T04:14:27.593Z,58.27
2019-03-01T04:24:39.032Z,56.27
2019-03-01T04:34:44.567Z,59.00
2019-03-01T04:44:50.079Z,60.73
2019-03-01T04:55:03.131Z,62.60
2019-03-01T05:05:08.671Z,61.30
2019-03-01T05:15:18.090Z,65.97
2019-03-01T05:25:23.608Z,65.23
2019-03-01T05:35:29.183Z,67.00
2019-03-01T05:45:34.796Z,65.07
2019-03-01T05:55:40.397Z,65.40
2019-03-01T06:05:55.428Z,68.00
2019-03-01T06:16:16.013Z,69.43
2019-03-01T06:26:35.864Z,71.37
2019-03-01T06:37:05.419Z,77.53
2019-03-01T06:47:41.670Z,71.43
2019-03-01T06:57:47.184Z,82.70
2019-03-01T07:07:52.713Z,87.57
2019-03-01T07:17:58.409Z,83.73
2019-03-01T07:28:03.998Z,85.80
2019-03-01T07:38:09.595Z,82.83
2019-03-01T07:48:15.136Z,81.00
2019-03-01T07:58:21.772Z,77.40
2019-03-01T08:08:27.857Z,75.57
2019-03-01T08:18:33.482Z,71.33
2019-03-01T08:28:39.099Z,84.10
2019-03-01T08:38:44.682Z,84.47
2019-03-01T08:48:50.200Z,84.33
2019-03-01T08:58:55.721Z,88.90
2019-03-01T09:09:01.289Z,90.37
2019-03-01T09:19:08.460Z,84.10
2019-03-01T09:29:18.555Z,81.07
2019-03-01T09:39:21.308Z,87.47
2019-03-01T09:49:28.817Z,83.13
2019-03-01T09:59:34.348Z,62.20
2019-03-01T10:09:39.906Z,61.27
2019-03-01T10:19:45.557Z,67.97
2019-03-01T10:29:51.283Z,69.17
2019-03-01T10:39:56.912Z,69.50
2019-03-01T10:50:02.427Z,72.30
2019-03-01T11:00:16.406Z,79.87
2019-03-01T11:10:30.714Z,80.93
2019-03-01T11:20:36.263Z,83.07
2019-03-01T11:30:42.912Z,76.20
2019-03-01T11:40:48.459Z,80.27
2019-03-01T11:50:54.073Z,79.77
2019-03-01T12:00:59.606Z,85.23
2019-03-01T12:11:05.269Z,86.20
2019-03-01T12:21:10.902Z,103.43
2019-03-01T12:31:16.566Z,103.50
2019-03-01T12:41:22.273Z,115.27
2019-03-01T12:51:33.772Z,117.07
2019-03-01T13:01:39.313Z,109.63
2019-03-01T13:11:45.044Z,99.63
2019-03-01T13:21:50.835Z,120.80
2019-03-01T13:31:57.674Z,115.73
2019-03-01T13:42:03.444Z,131.83
2019-03-01T13:52:09.088Z,129.03
2019-03-01T14:02:14.911Z,111.37
2019-03-01T14:12:21.718Z,129.67
2019-03-01T14:22:28.225Z,103.97
2019-03-01T14:32:34.001Z,86.50
2019-03-01T14:42:39.751Z,83.67
2019-03-01T14:52:45.269Z,82.30
2019-03-01T15:03:15.961Z,80.50
2019-03-01T15:13:16.380Z,79.73
2019-03-01T15:23:24.085Z,70.77
2019-03-01T15:33:29.262Z,72.67
2019-03-01T15:43:36.085Z,81.50
2019-03-01T15:53:41.491Z,80.80
2019-03-01T16:03:46.865Z,87.63
2019-03-01T16:13:54.364Z,93.43
2019-03-01T16:23:59.859Z,87.43
2019-03-01T16:34:05.336Z,89.17
2019-03-01T16:44:11.887Z,70.87
2019-03-01T16:54:17.256Z,70.50
2019-03-01T17:04:27.162Z,85.20
2019-03-01T17:14:29.777Z,73.73
2019-03-01T17:24:35.142Z,65.47
2019-03-01T17:34:40.535Z,78.87
2019-03-01T17:44:45.894Z,79.63
2019-03-01T17:54:51.283Z,90.33
2019-03-01T18:04:56.702Z,81.63
2019-03-01T18:15:02.045Z,78.77
2019-03-01T18:25:12.523Z,79.17
2019-03-01T18:35:17.894Z,83.40
2019-03-01T18:45:24.658Z,81.53
2019-03-01T18:55:30.037Z,81.00
2019-03-01T19:05:40.345Z,92.33
2019-03-01T19:15:48.081Z,82.33
2019-03-01T19:25:54.074Z,81.73
2019-03-01T19:36:03.262Z,81.47
2019-03-01T19:46:07.649Z,81.20
2019-03-01T19:56:13.087Z,89.60
2019-03-01T20:06:18.555Z,84.53
2019-03-01T20:16:25.024Z,111.03
2019-03-01T20:26:31.469Z,116.70
2019-03-01T20:36:38.592Z,113.70
2019-03-01T20:46:45.566Z,123.70
2019-03-01T20:56:51.653Z,116.63
2019-03-01T21:06:57.943Z,119.47
2019-03-01T21:17:03.624Z,124.57
2019-03-01T21:27:10.526Z,111.50
2019-03-01T21:37:16.625Z,90.30
2019-03-01T21:47:22.404Z,71.77
2019-03-01T21:57:31.128Z,73.27
2019-03-01T22:07:37.139Z,69.90
2019-03-01T22:17:41.976Z,67.83
2019-03-01T22:27:47.332Z,71.57
2019-03-01T22:37:52.703Z,68.57
2019-03-01T22:47:58.070Z,65.57
2019-03-01T22:58:05.535Z,61.20
2019-03-01T23:08:10.444Z,65.03
2019-03-01T23:18:15.821Z,67.53
2019-03-01T23:28:22.303Z,74.33
2019-03-01T23:38:27.680Z,74.37
2019-03-01T23:48:33.024Z,76.87
2019-03-01T23:58:38.406Z,84.30
